Cave Spring, Kentucky
Current Conditions -  °F | °C
As of 10:53 AM on Wednesday 22 Oct 2014 (Local Time) from KBWG Reporting Station
Clear Clear  
Wind Chill: 55°   Ceiling: Unl
Heat Index: 55°   Visibility: 10mi
Dew Point: 39°   Wind: 12mph
Humidity: 55%   Direction: 60°ENE
Pressure: 30.29"   Gusts: 17mph
Location:  36.8547°N, 86.8859°W
Report Text: KBWG 221553Z AUTO 06010G15KT 10SM CLR 13/04 A3029 RMK AO2 SLP258 T01280039
Loading
Personal Weather Stations






























Interactive Weather Map
Tropical Storm Tracking
New forecast layout! Learn more

10-Day Weather Forecast

Advertisements
Track Severe Weather on mobile